Time;durP1;ratioP1;P1;durP2;ratioP2;P2;SDS_P1;SDS_P2;PMS_P1;PMS_P2;Temp;Humidity;BMP_temperature;BMP_pressure;BME280_temperature;BME280_humidity;BME280_pressure;Samples;Min_cycle;Max_cycle;Signal;HPM_P1;HPM_P2
2024/01/02 00:02:53;;;;;;;30.23;13.15;;;;;;;13.11;100.00;101578.25;10602702;27;20050;-80
2024/01/02 00:08:15;;;;;;;20.50;10.07;;;;;;;13.08;100.00;101570.25;10627278;27;20079;-80
2024/01/02 00:13:38;;;;;;;12.18;6.80;;;;;;;12.99;100.00;101578.03;10622671;27;20051;-80
2024/01/02 00:19:02;;;;;;;6.13;4.65;;;;;;;13.08;100.00;101575.53;10612776;27;20042;-81
2024/01/02 00:24:24;;;;;;;8.38;5.55;;;;;;;13.15;100.00;101573.94;10616650;27;20047;-80
2024/01/02 00:29:47;;;;;;;12.85;8.80;;;;;;;12.99;100.00;101578.03;10602003;27;20061;-81
2024/01/02 00:35:11;;;;;;;16.05;12.77;;;;;;;12.96;100.00;101577.06;10633766;27;20452;-81
2024/01/02 00:40:34;;;;;;;5.63;3.67;;;;;;;12.91;100.00;101568.16;10610780;27;20169;-81
2024/01/02 00:45:57;;;;;;;7.60;5.10;;;;;;;12.92;100.00;101564.66;10640743;27;20058;-81
2024/01/02 00:51:21;;;;;;;6.50;3.78;;;;;;;12.94;100.00;101569.09;10643178;27;20529;-81
2024/01/02 00:56:44;;;;;;;9.35;4.90;;;;;;;12.92;100.00;101559.34;10616816;27;20078;-81
2024/01/02 01:02:06;;;;;;;44.97;40.08;;;;;;;12.79;100.00;101560.88;10593470;27;20051;-81
2024/01/02 01:07:30;;;;;;;50.72;46.17;;;;;;;12.78;100.00;101557.31;10584966;27;20051;-81
2024/01/02 01:12:53;;;;;;;36.83;30.02;;;;;;;12.76;100.00;101550.19;10619977;27;20131;-81
2024/01/02 01:18:16;;;;;;;58.00;52.03;;;;;;;12.77;100.00;101560.84;10609340;27;20214;-80
2024/01/02 01:23:40;;;;;;;4.85;4.05;;;;;;;12.77;100.00;101560.84;10632086;27;20054;-81
2024/01/02 01:29:03;;;;;;;41.97;37.67;;;;;;;12.77;100.00;101566.13;10636425;27;20046;-81
2024/01/02 01:34:27;;;;;;;25.65;23.15;;;;;;;12.65;100.00;101559.69;10617714;27;20058;-81
2024/01/02 01:39:52;;;;;;;5.90;3.92;;;;;;;12.69;100.00;101556.22;10620679;27;20073;-81
2024/01/02 01:45:15;;;;;;;4.43;3.67;;;;;;;12.68;100.00;101560.63;10622932;27;20091;-80
2024/01/02 01:50:41;;;;;;;8.23;3.78;;;;;;;12.66;100.00;101546.50;10619348;27;20050;-80
2024/01/02 01:56:07;;;;;;;22.63;12.02;;;;;;;12.66;100.00;101556.19;10582701;27;20039;-79
2024/01/02 02:01:30;;;;;;;26.25;13.57;;;;;;;12.77;100.00;101542.28;10599735;27;20111;-80
2024/01/02 02:06:53;;;;;;;30.80;17.92;;;;;;;12.77;100.00;101533.44;10609413;27;20046;-80
2024/01/02 02:12:17;;;;;;;8.27;4.65;;;;;;;12.73;100.00;101526.31;10601325;27;20043;-80
2024/01/02 02:17:40;;;;;;;12.60;8.60;;;;;;;12.64;100.00;101527.00;10605429;27;20363;-81
2024/01/02 02:23:04;;;;;;;11.00;6.25;;;;;;;12.70;100.00;101542.13;10617972;27;20078;-81
2024/01/02 02:28:27;;;;;;;9.85;5.75;;;;;;;12.52;100.00;101540.03;10608692;27;20074;-81
2024/01/02 02:33:49;;;;;;;11.25;5.13;;;;;;;12.60;100.00;101549.00;10648384;27;20046;-81
2024/01/02 02:39:13;;;;;;;9.90;7.90;;;;;;;12.56;100.00;101543.59;10622097;27;20039;-81
2024/01/02 02:44:36;;;;;;;7.93;5.35;;;;;;;12.47;100.00;101539.00;10597446;27;20054;-79
2024/01/02 02:49:59;;;;;;;4.88;4.10;;;;;;;12.42;100.00;101537.13;10627707;27;20103;-81
2024/01/02 02:55:23;;;;;;;6.60;4.07;;;;;;;12.39;100.00;101527.41;10595362;27;20107;-80
2024/01/02 03:00:47;;;;;;;5.80;4.82;;;;;;;12.33;100.00;101524.63;10598738;27;20043;-82
2024/01/02 03:06:10;;;;;;;7.70;4.13;;;;;;;12.24;100.00;101545.59;10605647;27;20066;-82
2024/01/02 03:11:34;;;;;;;4.95;3.40;;;;;;;12.14;100.00;101548.91;10622328;27;20046;-82
2024/01/02 03:16:58;;;;;;;11.63;3.97;;;;;;;12.29;100.00;101549.22;10608838;27;20158;-82
2024/01/02 03:22:21;;;;;;;5.60;3.38;;;;;;;12.42;100.00;101551.28;10615674;27;20047;-81
2024/01/02 03:27:45;;;;;;;5.93;3.63;;;;;;;12.30;100.00;101548.38;10619601;27;20314;-81
2024/01/02 03:33:08;;;;;;;4.78;3.60;;;;;;;12.29;100.00;101549.22;10599251;27;20502;-82
2024/01/02 03:38:31;;;;;;;5.82;3.15;;;;;;;12.40;100.00;101554.78;10613457;27;20130;-82
2024/01/02 03:43:55;;;;;;;6.65;3.45;;;;;;;12.44;100.00;101551.31;10622867;27;20487;-81
2024/01/02 03:49:18;;;;;;;4.93;3.40;;;;;;;12.38;100.00;101563.56;10633485;27;20371;-81
2024/01/02 03:54:40;;;;;;;6.10;3.80;;;;;;;12.21;100.00;101562.28;10605246;27;20142;-81
2024/01/02 04:00:05;;;;;;;5.65;3.10;;;;;;;12.18;100.00;101574.59;10591407;27;20059;-81
2024/01/02 04:05:29;;;;;;;4.32;3.35;;;;;;;12.24;100.00;101578.25;10592387;27;20065;-80
2024/01/02 04:10:52;;;;;;;2.92;2.65;;;;;;;12.24;100.00;101580.00;10629903;27;20428;-80
2024/01/02 04:16:16;;;;;;;5.65;3.53;;;;;;;12.22;100.00;101574.69;10642530;27;20043;-80
2024/01/02 04:21:38;;;;;;;24.60;13.55;;;;;;;12.31;100.00;101584.59;10589988;27;20411;-80
2024/01/02 04:27:01;;;;;;;9.07;4.50;;;;;;;12.28;100.00;101577.47;10591734;27;20051;-80
2024/01/02 04:32:24;;;;;;;4.90;3.30;;;;;;;12.22;100.00;101581.72;10604541;27;20092;-80
2024/01/02 04:37:48;;;;;;;10.55;6.20;;;;;;;12.22;100.00;101579.06;10575778;27;20100;-80
2024/01/02 04:43:10;;;;;;;7.70;5.45;;;;;;;12.32;100.00;101570.50;10592070;27;20047;-80
2024/01/02 04:48:34;;;;;;;8.63;6.32;;;;;;;12.33;100.00;101582.88;10614514;27;20043;-81
2024/01/02 04:53:57;;;;;;;18.33;13.20;;;;;;;12.39;100.00;101567.13;10596458;27;20051;-81
2024/01/02 04:59:20;;;;;;;13.02;9.30;;;;;;;12.33;100.00;101580.22;10610392;27;20049;-81
2024/01/02 05:04:44;;;;;;;4.93;3.65;;;;;;;12.28;100.00;101579.22;10602742;27;20482;-80
2024/01/02 05:10:07;;;;;;;18.58;15.38;;;;;;;12.23;100.00;101575.56;10646025;27;20046;-80
2024/01/02 05:15:29;;;;;;;36.33;27.92;;;;;;;12.33;100.00;101562.59;10635161;27;20142;-78
2024/01/02 05:20:53;;;;;;;17.58;14.45;;;;;;;12.38;100.00;101563.56;10592590;27;20049;-79
2024/01/02 05:26:15;;;;;;;27.83;21.40;;;;;;;12.55;100.00;101568.31;10619108;27;20074;-79
2024/01/02 05:31:38;;;;;;;111.65;87.90;;;;;;;12.89;100.00;101565.47;10600821;27;20047;-79
2024/01/02 05:37:02;;;;;;;89.40;79.75;;;;;;;13.39;100.00;101579.66;10624493;27;20095;-78
2024/01/02 05:42:24;;;;;;;89.50;78.32;;;;;;;13.78;100.00;101576.78;10640037;27;20053;-79
2024/01/02 05:47:47;;;;;;;161.93;144.32;;;;;;;14.05;100.00;101573.63;10612466;27;20039;-79
2024/01/02 05:53:11;;;;;;;104.85;93.38;;;;;;;14.36;100.00;101569.66;10594682;27;20055;-77
2024/01/02 05:58:33;;;;;;;138.75;117.30;;;;;;;14.48;100.00;101579.56;10616224;27;20050;-80
2024/01/02 06:03:55;;;;;;;60.67;49.65;;;;;;;14.62;100.00;101573.56;10611137;27;20046;-79
2024/01/02 06:09:21;;;;;;;174.57;148.30;;;;;;;14.86;100.00;101591.56;10615928;27;20745;-79
2024/01/02 06:14:43;;;;;;;176.52;142.15;;;;;;;15.07;100.00;101582.94;10622065;27;20050;-80
2024/01/02 06:20:08;;;;;;;140.00;122.93;;;;;;;15.31;100.00;101577.84;10640272;27;20478;-80
2024/01/02 06:25:32;;;;;;;116.95;101.38;;;;;;;17.21;100.00;101570.03;10608810;27;20130;-81
2024/01/02 06:30:55;;;;;;;91.10;80.63;;;;;;;19.95;100.00;101575.25;10600488;27;20043;-81
2024/01/02 06:36:17;;;;;;;47.92;42.67;;;;;;;21.11;100.00;101574.72;10593320;27;20070;-80
2024/01/02 06:41:41;;;;;;;50.45;43.90;;;;;;;22.73;94.92;101593.38;10578637;27;20079;-81
2024/01/02 06:47:04;;;;;;;44.45;39.30;;;;;;;23.43;80.50;101594.50;10586718;27;20051;-81
2024/01/02 06:52:26;;;;;;;37.45;33.13;;;;;;;23.39;80.57;101592.78;10602598;27;20725;-81
2024/01/02 06:57:53;;;;;;;48.28;43.38;;;;;;;23.83;77.71;101595.28;10592722;27;20081;-81
2024/01/02 07:03:17;;;;;;;64.70;58.30;;;;;;;24.89;69.06;101606.75;10600738;27;20050;-82
2024/01/02 07:08:42;;;;;;;52.75;47.05;;;;;;;24.57;73.23;101605.00;10589077;27;20092;-83
2024/01/02 07:14:07;;;;;;;50.72;44.50;;;;;;;25.39;68.31;101611.53;10609357;27;20777;-81
2024/01/02 07:19:30;;;;;;;19.13;16.75;;;;;;;24.97;68.68;101615.56;10605721;27;20423;-82
2024/01/02 07:24:52;;;;;;;12.25;8.55;;;;;;;24.60;73.40;101624.72;10608805;27;20072;-82
2024/01/02 07:30:17;;;;;;;73.00;65.38;;;;;;;24.02;79.60;101627.22;10613689;27;20665;-81
2024/01/02 07:35:40;;;;;;;14.13;6.85;;;;;;;24.59;72.97;101635.56;10623217;27;20147;-82
2024/01/02 07:41:02;;;;;;;9.55;5.75;;;;;;;25.17;67.19;101650.09;10609798;27;20065;-81
2024/01/02 07:46:27;;;;;;;9.13;3.95;;;;;;;26.56;58.94;101655.38;10603014;27;20482;-80
2024/01/02 07:51:51;;;;;;;5.82;3.60;;;;;;;26.64;53.97;101666.81;10599508;27;20518;-81
2024/01/02 07:57:13;;;;;;;6.25;3.53;;;;;;;26.63;55.19;101665.06;10630530;27;20051;-82
2024/01/02 08:02:37;;;;;;;7.57;3.25;;;;;;;27.98;49.34;101640.72;10616387;27;20050;-83
2024/01/02 08:08:00;;;;;;;5.13;2.28;;;;;;;27.32;47.91;101637.09;10621577;27;20053;-82
2024/01/02 08:13:22;;;;;;;5.45;2.65;;;;;;;25.41;55.71;101627.69;10649190;27;20402;-82
2024/01/02 08:18:46;;;;;;;6.18;3.15;;;;;;;25.54;56.40;101625.47;10650970;27;20047;-82
2024/01/02 08:24:08;;;;;;;5.63;2.75;;;;;;;27.11;50.01;101637.09;10610043;27;20043;-84
2024/01/02 08:29:31;;;;;;;4.40;2.50;;;;;;;27.54;47.66;101644.41;10614173;27;20122;-83
2024/01/02 08:34:55;;;;;;;5.53;2.33;;;;;;;27.94;46.77;101630.06;10615177;27;20459;-84
2024/01/02 08:40:18;;;;;;;5.43;3.08;;;;;;;27.90;45.45;101615.72;10646335;27;20107;-83
2024/01/02 08:45:40;;;;;;;5.28;2.72;;;;;;;27.45;46.21;101607.63;10651977;27;20270;-82
2024/01/02 08:51:05;;;;;;;3.22;2.03;;;;;;;27.90;45.05;101609.41;10623499;27;20047;-83
2024/01/02 08:56:28;;;;;;;6.35;2.55;;;;;;;28.29;43.88;101607.69;10614381;27;20043;-83
2024/01/02 09:01:51;;;;;;;5.70;3.25;;;;;;;27.45;45.66;101601.31;10609084;27;20039;-84
2024/01/02 09:07:15;;;;;;;6.30;3.35;;;;;;;26.88;47.34;101605.38;10627407;27;20553;-82
2024/01/02 09:12:38;;;;;;;15.10;5.00;;;;;;;27.10;48.00;101603.66;10594484;27;20055;-84
2024/01/02 09:18:00;;;;;;;6.70;3.42;;;;;;;27.46;46.69;101587.72;10631787;27;20053;-83
2024/01/02 09:23:25;;;;;;;8.50;5.82;;;;;;;27.67;46.78;101583.25;10615995;27;20047;-83
2024/01/02 09:28:47;;;;;;;5.28;2.50;;;;;;;27.70;45.83;101572.25;10635752;27;20039;-84
2024/01/02 09:34:10;;;;;;;7.95;3.40;;;;;;;26.36;50.56;101569.44;10648315;27;20051;-83
2024/01/02 09:39:35;;;;;;;15.43;10.95;;;;;;;25.69;56.53;101554.66;10636289;27;20057;-83
2024/01/02 09:45:12;;;;;;;9.38;3.67;;;;;;;24.12;72.87;101542.38;10620239;27;20050;-82
2024/01/02 09:50:38;;;;;;;8.75;4.45;;;;;;;23.59;89.06;101550.09;10607715;27;20575;-82
2024/01/02 09:56:10;;;;;;;20.05;10.95;;;;;;;25.16;70.10;101546.47;10590973;27;20371;-87
2024/01/02 10:01:40;;;;;;;5.88;3.60;;;;;;;25.00;58.87;101548.81;10582084;27;20059;-82
2024/01/02 10:07:27;;;;;;;8.48;4.47;;;;;;;24.85;54.44;101538.44;10605317;27;20047;-89
2024/01/02 10:13:09;;;;;;;5.53;3.05;;;;;;;24.72;51.58;101537.03;10593969;27;20053;-90
2024/01/02 10:18:49;;;;;;;5.45;2.42;;;;;;;24.52;51.07;101544.84;10597253;27;20539;-88
2024/01/02 10:24:26;;;;;;;4.32;3.13;;;;;;;24.97;48.54;101531.78;10589040;27;20047;-89
2024/01/02 10:29:59;;;;;;;19.75;8.50;;;;;;;25.34;48.11;101515.25;10586224;27;20408;-89
2024/01/02 10:35:32;;;;;;;12.07;9.63;;;;;;;25.26;46.96;101506.53;10573479;27;20068;-86
2024/01/02 10:41:03;;;;;;;4.43;3.45;;;;;;;24.50;47.79;101522.41;10589513;27;20042;-86
2024/01/02 10:46:36;;;;;;;5.13;2.72;;;;;;;24.66;47.86;101512.91;10604547;27;20058;-86
2024/01/02 10:52:04;;;;;;;4.38;2.00;;;;;;;24.32;48.37;101506.75;10601026;27;20055;-85
2024/01/02 10:57:54;;;;;;;4.32;1.90;;;;;;;24.10;48.80;101506.44;10598443;27;20047;-83
2024/01/02 11:03:20;;;;;;;4.72;3.17;;;;;;;23.90;47.93;101508.81;10589064;27;20047;-84
2024/01/02 11:08:56;;;;;;;2.13;1.80;;;;;;;23.62;48.06;101495.22;10597952;27;20055;-88
2024/01/02 11:14:22;;;;;;;5.68;2.10;;;;;;;24.27;47.04;101497.91;10602065;27;20112;-89
2024/01/02 11:19:57;;;;;;;13.52;12.18;;;;;;;24.75;45.07;101493.72;10574737;27;20519;-85
2024/01/02 11:25:27;;;;;;;6.15;4.03;;;;;;;24.31;45.43;101489.66;10593937;27;20043;-86
2024/01/02 11:30:51;;;;;;;9.80;3.90;;;;;;;24.00;46.51;101495.03;10599016;27;20061;-83
2024/01/02 11:36:38;;;;;;;4.07;3.15;;;;;;;23.67;49.43;101499.53;10592309;27;20043;-84
2024/01/02 11:42:27;;;;;;;5.60;3.97;;;;;;;23.79;50.07;101482.16;10585717;27;20031;-83
2024/01/02 11:48:16;;;;;;;5.38;2.67;;;;;;;24.30;51.74;101471.69;10616290;27;20150;-82
2024/01/02 11:53:55;;;;;;;5.07;2.85;;;;;;;24.08;53.14;101487.63;10603046;27;20055;-82
2024/01/02 11:59:27;;;;;;;6.57;4.03;;;;;;;23.86;55.04;101472.06;10608743;27;20055;-80
2024/01/02 12:05:06;;;;;;;4.50;2.88;;;;;;;23.78;55.77;101475.88;10596672;27;20051;-83
2024/01/02 12:10:37;;;;;;;7.60;4.60;;;;;;;23.31;55.74;101478.88;10630477;27;20058;-87
2024/01/02 12:16:04;;;;;;;9.63;8.65;;;;;;;23.15;53.89;101464.06;10618946;27;20050;-85
2024/01/02 12:21:33;;;;;;;8.05;5.05;;;;;;;23.22;53.75;101446.81;10606684;27;20552;-81
2024/01/02 12:27:01;;;;;;;10.95;9.90;;;;;;;23.39;53.86;101450.81;10595335;27;20092;-87
2024/01/02 12:32:36;;;;;;;10.75;7.75;;;;;;;23.42;56.05;101439.09;10594314;27;20090;-84
2024/01/02 12:38:12;;;;;;;5.30;2.65;;;;;;;23.15;57.11;101420.94;10592626;27;20043;-83
2024/01/02 12:43:42;;;;;;;4.07;3.22;;;;;;;22.81;58.15;101410.13;10626613;27;20062;-82
2024/01/02 12:49:11;;;;;;;10.70;8.20;;;;;;;22.75;58.25;101421.03;10599467;27;20035;-86
2024/01/02 12:54:42;;;;;;;7.40;5.40;;;;;;;22.82;58.50;101428.94;10590184;27;20176;-85
2024/01/02 13:00:08;;;;;;;15.65;7.25;;;;;;;22.83;58.39;101422.66;10602518;27;20209;-87
2024/01/02 13:05:31;;;;;;;6.03;3.00;;;;;;;22.79;58.66;101429.00;10601395;27;20047;-87
2024/01/02 13:10:55;;;;;;;13.32;7.82;;;;;;;22.73;59.86;101433.66;10600683;27;20051;-85
2024/01/02 13:16:20;;;;;;;16.83;9.82;;;;;;;22.80;61.33;101422.69;10604722;27;20058;-87
2024/01/02 13:21:43;;;;;;;15.07;8.10;;;;;;;22.96;62.38;101426.81;10636882;27;20502;-86
2024/01/02 13:27:06;;;;;;;14.35;8.65;;;;;;;22.91;64.76;101436.78;10636530;27;20542;-87
2024/01/02 13:32:30;;;;;;;17.67;10.88;;;;;;;22.52;75.36;101430.50;10591346;27;20051;-84
2024/01/02 13:37:52;;;;;;;31.92;16.33;;;;;;;22.34;82.52;101447.06;10606872;27;20116;-85
2024/01/02 13:43:15;;;;;;;25.10;12.43;;;;;;;22.12;89.09;101452.00;10593309;27;20043;-87
2024/01/02 13:48:40;;;;;;;21.27;10.85;;;;;;;22.06;91.76;101462.00;10589590;27;20100;-84
2024/01/02 13:54:06;;;;;;;10.77;5.30;;;;;;;22.04;92.57;101474.63;10588107;27;20061;-88
2024/01/02 13:59:34;;;;;;;7.28;4.72;;;;;;;21.96;89.02;101468.50;10592571;27;20069;-83
2024/01/02 14:05:07;;;;;;;14.75;4.25;;;;;;;21.70;91.70;101461.81;10597757;27;20070;-84
2024/01/02 14:10:33;;;;;;;9.68;3.38;;;;;;;21.43;97.15;101467.69;10564700;27;20346;-84
2024/01/02 14:15:58;;;;;;;52.00;28.35;;;;;;;21.17;100.00;101469.94;10577316;27;20047;-84
2024/01/02 14:21:25;;;;;;;15.25;9.13;;;;;;;20.95;100.00;101472.91;10602865;27;20046;-83
2024/01/02 14:27:01;;;;;;;58.55;27.08;;;;;;;20.75;100.00;101476.81;10603727;27;20058;-85
2024/01/02 14:32:46;;;;;;;16.30;7.32;;;;;;;20.56;100.00;101469.03;10579840;27;20042;-86
2024/01/02 14:38:19;;;;;;;9.80;5.22;;;;;;;20.32;100.00;101473.81;10597538;27;20058;-88
2024/01/02 14:43:53;;;;;;;20.35;10.32;;;;;;;20.12;100.00;101461.56;10578848;27;20512;-90
2024/01/02 14:49:26;;;;;;;25.38;13.85;;;;;;;19.90;100.00;101482.34;10603817;27;20081;-85
2024/01/02 14:55:17;;;;;;;28.60;20.10;;;;;;;19.70;100.00;101480.78;10587277;27;20124;-87
2024/01/02 15:00:48;;;;;;;27.85;20.25;;;;;;;19.52;100.00;101491.69;10604055;27;20734;-87
2024/01/02 15:06:15;;;;;;;33.28;23.67;;;;;;;19.46;100.00;101516.75;10618959;27;20043;-88
2024/01/02 15:11:54;;;;;;;36.50;32.15;;;;;;;19.59;100.00;101523.75;10614293;27;20123;-86
2024/01/02 15:17:35;;;;;;;37.40;33.35;;;;;;;19.54;100.00;101524.72;10581123;27;20044;-86
2024/01/02 15:23:11;;;;;;;18.75;10.00;;;;;;;19.23;100.00;101513.34;10594580;27;20402;-88
2024/01/02 15:28:40;;;;;;;25.03;11.50;;;;;;;18.90;100.00;101510.00;10598849;27;20054;-87
2024/01/02 15:34:10;;;;;;;17.92;9.73;;;;;;;18.63;100.00;101496.81;10575925;27;20047;-88
2024/01/02 15:39:39;;;;;;;17.38;12.55;;;;;;;18.49;100.00;101509.31;10590445;28;20392;-90
2024/01/02 15:45:07;;;;;;;28.08;21.73;;;;;;;18.29;100.00;101509.41;10608590;28;20035;-90
2024/01/02 15:50:37;;;;;;;30.05;23.85;;;;;;;18.13;100.00;101516.59;10590979;28;20101;-87
2024/01/02 15:56:05;;;;;;;24.80;19.27;;;;;;;17.92;100.00;101522.88;10577966;27;20055;-83
2024/01/02 16:01:32;;;;;;;23.67;16.23;;;;;;;17.92;100.00;101524.66;10579586;27;20677;-86
2024/01/02 16:07:19;;;;;;;36.97;30.90;;;;;;;17.90;100.00;101527.34;10586679;27;20059;-83
2024/01/02 16:12:57;;;;;;;19.75;15.35;;;;;;;17.72;100.00;101531.84;10599665;27;20039;-79
2024/01/02 16:18:35;;;;;;;;;;;;;;;17.63;100.00;101514.03;10595281;27;20105;-86
2024/01/02 16:24:37;;;;;;;25.23;16.80;;;;;;;17.30;100.00;101522.03;10582890;27;19949;-83
2024/01/02 16:30:18;;;;;;;91.38;63.03;;;;;;;17.20;100.00;101517.59;10584533;27;20040;-84
2024/01/02 16:35:58;;;;;;;36.58;25.58;;;;;;;17.08;100.00;101531.78;10592628;27;20142;-85
2024/01/02 16:41:22;;;;;;;24.30;15.40;;;;;;;17.05;100.00;101545.13;10611773;27;20046;-83
2024/01/02 16:46:47;;;;;;;23.75;12.98;;;;;;;16.87;100.00;101555.78;10571073;27;20444;-85
2024/01/02 16:52:21;;;;;;;22.70;12.32;;;;;;;16.68;100.00;101547.69;10563192;27;20055;-86
2024/01/02 16:57:50;;;;;;;24.98;17.75;;;;;;;16.66;100.00;101554.81;10607640;27;20479;-83
2024/01/02 17:03:13;;;;;;;31.05;18.17;;;;;;;16.66;100.00;101545.94;10604568;27;20039;-79
2024/01/02 17:08:37;;;;;;;22.85;12.75;;;;;;;16.53;100.00;101552.97;10603629;27;20104;-80
2024/01/02 17:14:06;;;;;;;34.15;17.27;;;;;;;16.53;100.00;101562.72;10592918;27;20043;-80
2024/01/02 17:19:30;;;;;;;18.95;11.55;;;;;;;16.42;100.00;101560.00;10597107;27;20582;-84
2024/01/02 17:25:00;;;;;;;19.52;11.43;;;;;;;16.40;100.00;101556.47;10580074;27;20108;-80
2024/01/02 17:30:24;;;;;;;23.05;14.23;;;;;;;16.28;100.00;101559.03;10601194;27;20126;-82
2024/01/02 17:35:47;;;;;;;30.98;17.80;;;;;;;16.23;100.00;101560.78;10619030;27;20496;-84
2024/01/02 17:41:10;;;;;;;25.20;15.80;;;;;;;16.10;100.00;101561.59;10577152;27;20104;-83
2024/01/02 17:46:38;;;;;;;20.02;9.27;;;;;;;16.12;100.00;101555.41;10591255;27;20043;-84
2024/01/02 17:52:02;;;;;;;23.98;14.25;;;;;;;16.11;100.00;101571.38;10606184;27;20096;-85
2024/01/02 17:57:26;;;;;;;18.23;12.80;;;;;;;15.99;100.00;101584.63;10604426;27;20054;-86
2024/01/02 18:02:59;;;;;;;34.20;25.98;;;;;;;15.91;100.00;101580.13;10605203;27;20042;-82
2024/01/02 18:08:34;;;;;;;23.23;15.57;;;;;;;15.83;100.00;101571.19;10649223;27;20046;-84
2024/01/02 18:14:19;;;;;;;19.67;12.50;;;;;;;15.89;100.00;101570.34;10610407;27;20050;-85
2024/01/02 18:20:00;;;;;;;18.55;13.27;;;;;;;15.87;100.00;101582.78;10617074;27;20042;-82
2024/01/02 18:25:47;;;;;;;58.50;52.38;;;;;;;15.96;100.00;101606.78;10636409;27;20054;-86
2024/01/02 18:31:29;;;;;;;33.92;25.85;;;;;;;16.21;100.00;101597.22;10595080;27;20042;-81
2024/01/02 18:37:08;;;;;;;25.70;15.48;;;;;;;16.11;100.00;101593.59;10607454;27;20066;-80
2024/01/02 18:42:37;;;;;;;17.70;9.82;;;;;;;16.03;100.00;101602.41;10618826;27;20050;-81
2024/01/02 18:48:06;;;;;;;18.17;11.18;;;;;;;15.95;100.00;101597.03;10631340;27;20053;-84
2024/01/02 18:53:41;;;;;;;19.20;11.05;;;;;;;16.01;100.00;101609.50;10634577;27;20103;-82
2024/01/02 18:59:06;;;;;;;52.95;47.00;;;;;;;15.95;100.00;101608.56;10633216;27;20481;-84
2024/01/02 19:04:29;;;;;;;37.00;30.75;;;;;;;15.79;100.00;101616.44;10619255;27;20051;-82
2024/01/02 19:09:57;;;;;;;23.52;15.15;;;;;;;15.63;100.00;101610.09;10610835;27;20043;-83
2024/01/02 19:15:19;;;;;;;21.83;14.48;;;;;;;15.68;100.00;101608.38;10612938;27;20158;-83
2024/01/02 19:20:42;;;;;;;29.75;20.15;;;;;;;15.62;100.00;101624.28;10606169;27;20571;-83
2024/01/02 19:26:07;;;;;;;14.85;11.15;;;;;;;15.52;100.00;101620.66;10599831;27;20050;-83
2024/01/02 19:31:32;;;;;;;13.57;9.77;;;;;;;15.40;100.00;101632.91;10606018;27;20100;-82
2024/01/02 19:36:55;;;;;;;17.33;11.30;;;;;;;15.39;100.00;101624.03;10586553;27;20122;-84
2024/01/02 19:42:20;;;;;;;9.50;5.82;;;;;;;15.36;100.00;101618.69;10623939;27;20068;-81
2024/01/02 19:47:43;;;;;;;15.07;9.13;;;;;;;15.48;100.00;101620.59;10630909;27;20047;-82
2024/01/02 19:53:07;;;;;;;11.15;7.30;;;;;;;15.43;100.00;101619.63;10595551;28;20194;-81
2024/01/02 19:58:32;;;;;;;22.13;16.63;;;;;;;15.32;100.00;101615.97;10571413;28;20054;-83
2024/01/02 20:03:56;;;;;;;13.35;6.72;;;;;;;15.21;100.00;101617.66;10593523;28;20048;-84
2024/01/02 20:09:37;;;;;;;8.73;6.82;;;;;;;15.25;100.00;101617.69;10564970;27;20483;-83
2024/01/02 20:15:02;;;;;;;42.42;25.08;;;;;;;15.25;100.00;101630.09;10598880;27;20055;-84
2024/01/02 20:20:58;;;;;;;30.10;21.30;;;;;;;15.07;100.00;101631.69;10586575;27;20438;-83
2024/01/02 20:26:23;;;;;;;11.40;7.55;;;;;;;14.79;100.00;101624.25;10560534;27;20051;-83
2024/01/02 20:31:49;;;;;;;10.07;6.40;;;;;;;14.87;100.00;101627.91;10558320;27;20516;-83
2024/01/02 20:37:30;;;;;;;13.43;6.50;;;;;;;15.01;100.00;101636.94;10541739;28;20047;-83
2024/01/02 20:42:53;;;;;;;12.15;5.82;;;;;;;15.11;100.00;101636.16;10548029;27;20298;-80
2024/01/02 20:48:17;;;;;;;22.92;17.30;;;;;;;15.01;100.00;101634.28;10565726;27;20051;-81
2024/01/02 20:53:42;;;;;;;9.15;6.53;;;;;;;15.02;100.00;101630.75;10602154;27;20051;-80
2024/01/02 20:59:13;;;;;;;5.18;3.78;;;;;;;15.12;100.00;101623.75;10608367;27;20043;-81
2024/01/02 21:04:41;;;;;;;12.48;5.78;;;;;;;15.19;100.00;101609.66;10622665;27;20066;-81
2024/01/02 21:10:21;;;;;;;12.15;9.80;;;;;;;15.14;100.00;101612.28;10647075;27;20149;-81
2024/01/02 21:15:45;;;;;;;10.95;5.47;;;;;;;14.91;100.00;101610.22;10601196;27;20081;-82
2024/01/02 21:21:22;;;;;;;10.25;6.20;;;;;;;14.70;100.00;101613.53;10620670;27;20120;-81
2024/01/02 21:26:44;;;;;;;29.50;16.63;;;;;;;14.79;100.00;101596.78;10600195;27;20116;-81
2024/01/02 21:32:07;;;;;;;9.07;5.43;;;;;;;14.90;100.00;101584.53;10626515;27;20055;-78
2024/01/02 21:37:32;;;;;;;10.38;7.32;;;;;;;14.95;100.00;101596.09;10634085;27;20061;-79
2024/01/02 21:42:55;;;;;;;6.22;4.28;;;;;;;14.85;100.00;101592.44;10635954;27;20398;-82
2024/01/02 21:48:29;;;;;;;10.93;5.88;;;;;;;14.81;100.00;101595.94;10592663;27;20059;-81
2024/01/02 21:53:59;;;;;;;9.23;4.72;;;;;;;14.71;100.00;101583.38;10592339;27;20054;-80
2024/01/02 21:59:28;;;;;;;5.85;3.83;;;;;;;14.79;100.00;101575.50;10564582;28;20053;-81
2024/01/02 22:04:51;;;;;;;4.78;3.08;;;;;;;15.03;100.00;101566.03;10623391;27;20054;-81
2024/01/02 22:10:41;;;;;;;8.15;4.25;;;;;;;15.10;100.00;101559.00;10626929;27;20051;-82
2024/01/02 22:16:07;;;;;;;13.00;7.20;;;;;;;15.09;100.00;101555.47;10634214;27;20077;-82
2024/01/02 22:22:15;;;;;;;7.13;3.40;;;;;;;15.01;100.00;101530.56;10622241;27;20055;-81
2024/01/02 22:27:42;;;;;;;6.10;3.78;;;;;;;14.84;100.00;101516.19;10562337;28;20074;-81
2024/01/02 22:33:28;;;;;;;5.72;3.78;;;;;;;14.82;100.00;101512.66;10641080;27;20106;-82
2024/01/02 22:39:23;;;;;;;8.13;3.90;;;;;;;14.86;100.00;101511.81;10644188;27;20054;-81
2024/01/02 22:44:47;;;;;;;8.68;4.47;;;;;;;14.83;100.00;101508.22;10600815;27;20046;-80
2024/01/02 22:50:10;;;;;;;5.65;3.60;;;;;;;14.83;100.00;101508.22;10601697;27;20312;-81
2024/01/02 22:55:32;;;;;;;4.40;3.47;;;;;;;14.82;100.00;101506.44;10618993;27;20046;-81
2024/01/02 23:00:57;;;;;;;11.93;7.63;;;;;;;14.93;100.00;101521.63;10612361;27;20051;-81
2024/01/02 23:06:20;;;;;;;8.20;6.22;;;;;;;15.10;100.00;101514.69;10605641;27;20055;-82
2024/01/02 23:11:44;;;;;;;10.40;3.25;;;;;;;15.34;100.00;101508.72;10604094;27;20636;-82
2024/01/02 23:17:36;;;;;;;7.60;2.92;;;;;;;15.47;100.00;101504.38;10605290;27;20050;-82
2024/01/02 23:23:06;;;;;;;5.57;3.15;;;;;;;15.73;100.00;101496.59;10630905;27;20103;-82
2024/01/02 23:28:54;;;;;;;4.93;3.90;;;;;;;15.51;100.00;101507.06;10620803;27;20038;-83
2024/01/02 23:34:42;;;;;;;7.60;4.03;;;;;;;15.32;100.00;101496.25;10627851;27;20043;-82
2024/01/02 23:40:13;;;;;;;13.40;3.70;;;;;;;15.17;100.00;101505.00;10615722;27;20066;-82
2024/01/02 23:45:38;;;;;;;6.68;3.17;;;;;;;14.99;100.00;101519.03;10635996;27;20410;-82
2024/01/02 23:51:10;;;;;;;5.70;3.50;;;;;;;15.17;100.00;101520.94;10630242;27;20145;-82
2024/01/02 23:56:38;;;;;;;8.65;4.32;;;;;;;15.13;100.00;101519.16;10622447;27;20082;-83
